Time;durP1;ratioP1;P1;durP2;ratioP2;P2;SDS_P1;SDS_P2;PMS_P1;PMS_P2;Temp;Humidity;BMP_temperature;BMP_pressure;BME280_temperature;BME280_humidity;BME280_pressure;Samples;Min_cycle;Max_cycle;Signal;HPM_P1;HPM_P2
2023/08/01 00:02:06;;;;;;;2.37;2.17;;;17.60;99.90;;;;;;4983918;28;20665;-70
2023/08/01 00:04:33;;;;;;;2.20;2.00;;;17.60;99.90;;;;;;4976311;28;20661;-70
2023/08/01 00:06:59;;;;;;;1.50;1.40;;;17.60;99.90;;;;;;4982146;28;20645;-70
2023/08/01 00:09:26;;;;;;;4.73;2.10;;;17.60;99.90;;;;;;4983773;28;20633;-72
2023/08/01 00:11:54;;;;;;;2.50;2.23;;;17.60;99.90;;;;;;4982088;28;20638;-72
2023/08/01 00:14:24;;;;;;;2.33;1.47;;;17.60;99.90;;;;;;4986948;28;20635;-71
2023/08/01 00:16:51;;;;;;;2.50;2.20;;;17.50;99.90;;;;;;4981974;28;20727;-72
2023/08/01 00:19:17;;;;;;;3.00;2.37;;;17.50;99.90;;;;;;4983288;28;20642;-72
2023/08/01 00:21:44;;;;;;;1.93;1.70;;;17.50;99.90;;;;;;4980223;28;20652;-70
2023/08/01 00:24:11;;;;;;;2.37;2.17;;;17.50;99.90;;;;;;4986161;28;20667;-72
2023/08/01 00:26:38;;;;;;;3.33;1.73;;;17.40;99.90;;;;;;4980735;28;20648;-71
2023/08/01 00:29:05;;;;;;;3.37;2.40;;;17.40;99.90;;;;;;4977090;28;20634;-71
2023/08/01 00:31:33;;;;;;;3.40;2.63;;;17.40;99.90;;;;;;4982221;28;21308;-72
2023/08/01 00:33:59;;;;;;;2.13;1.80;;;17.40;99.90;;;;;;4983347;28;20985;-71
2023/08/01 00:36:26;;;;;;;9.30;2.37;;;17.50;99.90;;;;;;4979718;28;20650;-71
2023/08/01 00:38:53;;;;;;;1.70;1.60;;;17.40;99.90;;;;;;4977913;28;20998;-70
2023/08/01 00:41:20;;;;;;;4.03;2.50;;;17.40;99.90;;;;;;4977625;28;20685;-70
2023/08/01 00:43:47;;;;;;;2.53;2.33;;;17.60;99.90;;;;;;4981756;28;20669;-71
2023/08/01 00:46:14;;;;;;;3.50;2.10;;;17.60;99.90;;;;;;4980316;28;20664;-71
2023/08/01 00:48:42;;;;;;;3.17;2.30;;;17.50;99.90;;;;;;4983591;28;20632;-70
2023/08/01 00:51:11;;;;;;;3.83;2.50;;;17.40;99.90;;;;;;4983059;28;20644;-71
2023/08/01 00:53:38;;;;;;;1.90;1.73;;;17.40;99.90;;;;;;4979675;28;21249;-70
2023/08/01 00:56:05;;;;;;;1.93;1.73;;;17.40;99.90;;;;;;4978911;28;21205;-71
2023/08/01 00:58:32;;;;;;;1.77;1.67;;;17.50;99.90;;;;;;4976019;28;21136;-71
2023/08/01 01:01:00;;;;;;;3.13;2.17;;;17.50;99.90;;;;;;4981856;28;21345;-71
2023/08/01 01:03:27;;;;;;;2.43;1.57;;;17.50;99.90;;;;;;4981171;28;21022;-70
2023/08/01 01:06:02;;;;;;;3.03;2.33;;;17.50;99.90;;;;;;4976944;28;20656;-70
2023/08/01 01:08:28;;;;;;;2.70;2.07;;;17.50;99.90;;;;;;4980243;28;20629;-71
2023/08/01 01:10:55;;;;;;;3.93;1.97;;;17.50;99.90;;;;;;4983152;28;20751;-70
2023/08/01 01:13:23;;;;;;;3.33;1.93;;;17.50;99.90;;;;;;4984124;28;20633;-72
2023/08/01 01:15:50;;;;;;;2.60;2.40;;;17.40;99.90;;;;;;4979107;28;20653;-72
2023/08/01 01:18:18;;;;;;;3.07;2.10;;;17.40;99.90;;;;;;4983988;28;20737;-72
2023/08/01 01:20:47;;;;;;;2.20;2.00;;;17.60;99.90;;;;;;4978078;28;20696;-72
2023/08/01 01:23:14;;;;;;;2.80;2.10;;;17.60;99.90;;;;;;4982142;28;20719;-72
2023/08/01 01:25:43;;;;;;;2.33;2.13;;;17.70;99.90;;;;;;4976970;28;20645;-72
2023/08/01 01:28:11;;;;;;;2.17;1.90;;;17.60;99.90;;;;;;4980919;28;20656;-72
2023/08/01 01:30:39;;;;;;;3.37;2.07;;;17.60;99.90;;;;;;4979378;28;21226;-73
2023/08/01 01:33:08;;;;;;;1.87;1.60;;;17.60;99.90;;;;;;4981499;28;20729;-72
2023/08/01 01:35:35;;;;;;;1.73;1.63;;;17.50;99.90;;;;;;4978410;28;20645;-72
2023/08/01 01:38:04;;;;;;;3.93;1.97;;;17.30;99.90;;;;;;4984298;28;20633;-72
2023/08/01 01:40:32;;;;;;;3.30;2.13;;;17.20;99.90;;;;;;4975132;28;20696;-72
2023/08/01 01:43:00;;;;;;;2.53;1.70;;;17.20;99.90;;;;;;4981639;28;20716;-72
2023/08/01 01:45:28;;;;;;;2.10;1.70;;;17.20;99.90;;;;;;4980073;28;20668;-72
2023/08/01 01:47:56;;;;;;;1.67;1.57;;;17.10;99.90;;;;;;4977241;28;20701;-72
2023/08/01 01:50:23;;;;;;;4.33;2.50;;;17.00;99.90;;;;;;4979043;28;20648;-72
2023/08/01 01:52:51;;;;;;;2.40;1.87;;;17.10;99.90;;;;;;4978735;28;20637;-72
2023/08/01 01:55:20;;;;;;;5.43;2.60;;;17.10;99.90;;;;;;4978910;28;20634;-72
2023/08/01 01:57:48;;;;;;;3.10;2.00;;;17.10;99.90;;;;;;4981650;28;20738;-72
2023/08/01 02:00:17;;;;;;;3.50;2.70;;;17.00;99.90;;;;;;4977775;28;20700;-72
2023/08/01 02:02:46;;;;;;;2.80;2.03;;;16.90;99.90;;;;;;4978238;28;21297;-72
2023/08/01 02:05:13;;;;;;;2.37;2.13;;;17.00;99.90;;;;;;4981421;28;20676;-72
2023/08/01 02:07:41;;;;;;;2.73;2.30;;;17.00;99.90;;;;;;4986575;28;20760;-72
2023/08/01 02:10:08;;;;;;;3.57;2.13;;;16.90;99.90;;;;;;4977683;28;20708;-72
2023/08/01 02:12:36;;;;;;;2.60;2.20;;;16.90;99.90;;;;;;4979734;28;20709;-72
2023/08/01 02:15:04;;;;;;;1.97;1.87;;;16.90;99.90;;;;;;4983516;28;20617;-73
2023/08/01 02:17:31;;;;;;;3.00;2.23;;;17.00;99.90;;;;;;4979188;28;20673;-72
2023/08/01 02:19:58;;;;;;;3.17;2.20;;;16.90;99.90;;;;;;4982101;28;21033;-70
2023/08/01 02:22:26;;;;;;;3.70;2.20;;;17.00;99.90;;;;;;4978079;28;20652;-72
2023/08/01 02:24:54;;;;;;;2.30;2.10;;;16.90;99.90;;;;;;4978668;28;20661;-72
2023/08/01 02:27:21;;;;;;;5.70;2.63;;;16.90;99.90;;;;;;4972970;28;20662;-72
2023/08/01 02:29:50;;;;;;;3.30;3.00;;;17.00;99.90;;;;;;4976428;28;20629;-72
2023/08/01 02:32:18;;;;;;;2.33;2.17;;;17.00;99.90;;;;;;4978754;28;21256;-70
2023/08/01 02:34:46;;;;;;;2.10;1.90;;;17.00;99.90;;;;;;4977542;28;20654;-72
2023/08/01 02:37:13;;;;;;;2.80;1.70;;;17.00;99.90;;;;;;4979484;28;20745;-70
2023/08/01 02:39:40;;;;;;;3.27;2.13;;;17.00;99.90;;;;;;4980159;28;21190;-72
2023/08/01 02:42:08;;;;;;;2.77;2.40;;;17.00;99.90;;;;;;4975342;28;20753;-72
2023/08/01 02:44:35;;;;;;;2.80;2.57;;;17.00;99.90;;;;;;4980832;28;20767;-73
2023/08/01 02:47:05;;;;;;;6.23;2.00;;;17.00;99.90;;;;;;4979401;28;20652;-73
2023/08/01 02:49:33;;;;;;;2.77;2.57;;;17.10;99.90;;;;;;4980197;28;20629;-72
2023/08/01 02:52:01;;;;;;;3.77;1.70;;;17.00;99.90;;;;;;4977709;28;20753;-71
2023/08/01 02:54:29;;;;;;;3.23;2.00;;;17.00;99.90;;;;;;4978391;28;20985;-72
2023/08/01 02:56:57;;;;;;;2.67;2.30;;;17.10;99.90;;;;;;4980560;28;21202;-72
2023/08/01 02:59:25;;;;;;;2.83;2.63;;;17.20;99.90;;;;;;4980272;28;20696;-72
2023/08/01 03:01:52;;;;;;;2.63;2.20;;;17.10;99.90;;;;;;4980171;28;20980;-72
2023/08/01 03:04:21;;;;;;;2.53;2.33;;;17.10;99.90;;;;;;4978260;28;20685;-72
2023/08/01 03:06:50;;;;;;;2.53;2.07;;;17.20;99.90;;;;;;4979541;28;20744;-72
2023/08/01 03:09:17;;;;;;;3.30;2.23;;;17.20;99.90;;;;;;4977747;28;20638;-72
2023/08/01 03:11:45;;;;;;;2.10;1.90;;;17.20;99.90;;;;;;4980026;28;20660;-72
2023/08/01 03:14:13;;;;;;;2.67;2.00;;;17.20;99.90;;;;;;4977954;28;20684;-72
2023/08/01 03:16:40;;;;;;;3.00;2.70;;;17.20;99.90;;;;;;4978208;28;21299;-72
2023/08/01 03:19:08;;;;;;;3.00;2.37;;;17.20;99.90;;;;;;4978369;28;20636;-72
2023/08/01 03:21:36;;;;;;;2.47;2.27;;;17.20;99.90;;;;;;4977281;28;20658;-71
2023/08/01 03:24:06;;;;;;;2.37;2.00;;;17.20;99.90;;;;;;4979039;28;20744;-72
2023/08/01 03:26:32;;;;;;;3.30;2.60;;;17.30;99.90;;;;;;4976885;28;20650;-72
2023/08/01 03:28:59;;;;;;;2.87;2.50;;;17.30;99.90;;;;;;4978843;28;20732;-72
2023/08/01 03:31:26;;;;;;;3.13;2.20;;;17.20;99.90;;;;;;4977239;28;20701;-72
2023/08/01 03:33:53;;;;;;;2.70;2.17;;;17.30;99.90;;;;;;4983613;28;20724;-72
2023/08/01 03:36:19;;;;;;;2.70;2.17;;;17.20;99.90;;;;;;4977914;28;20645;-72
2023/08/01 03:38:48;;;;;;;1.73;1.63;;;17.30;99.90;;;;;;4976975;28;20626;-72
2023/08/01 03:41:15;;;;;;;1.70;1.60;;;17.20;99.90;;;;;;4978931;28;20748;-72
2023/08/01 03:43:41;;;;;;;2.23;2.03;;;17.30;99.90;;;;;;4981311;28;21048;-72
2023/08/01 03:46:08;;;;;;;2.23;2.03;;;17.20;99.90;;;;;;4984208;28;21222;-72
2023/08/01 03:48:35;;;;;;;2.77;2.47;;;17.20;99.90;;;;;;4973823;28;20629;-72
2023/08/01 03:51:03;;;;;;;2.33;2.13;;;17.30;99.90;;;;;;4979484;28;20727;-73
2023/08/01 03:53:30;;;;;;;4.57;2.77;;;17.30;99.90;;;;;;4975166;28;20630;-72
2023/08/01 03:55:58;;;;;;;5.17;2.03;;;17.30;99.90;;;;;;4979638;28;20656;-71
2023/08/01 03:58:25;;;;;;;2.27;2.07;;;17.40;99.90;;;;;;4974815;28;20634;-72
2023/08/01 04:00:52;;;;;;;10.17;2.53;;;17.40;99.90;;;;;;4978940;28;20653;-72
2023/08/01 04:03:18;;;;;;;2.30;2.10;;;17.30;99.90;;;;;;4973619;28;20634;-72
2023/08/01 04:05:45;;;;;;;3.50;3.00;;;17.40;99.90;;;;;;4978102;28;20678;-71
2023/08/01 04:08:12;;;;;;;5.07;3.13;;;17.40;99.90;;;;;;4976497;28;20729;-71
2023/08/01 04:10:39;;;;;;;6.20;2.37;;;17.40;99.90;;;;;;4976023;28;20672;-71
2023/08/01 04:13:07;;;;;;;2.93;2.00;;;17.50;99.90;;;;;;4979959;28;20697;-71
2023/08/01 04:15:34;;;;;;;3.53;1.97;;;17.60;99.90;;;;;;4977855;28;20713;-71
2023/08/01 04:18:01;;;;;;;2.83;1.67;;;17.70;99.90;;;;;;4983426;28;20634;-71
2023/08/01 04:20:27;;;;;;;2.93;2.17;;;17.70;99.90;;;;;;4976563;28;20661;-71
2023/08/01 04:22:54;;;;;;;2.50;1.97;;;17.60;99.90;;;;;;4976853;28;20622;-71
2023/08/01 04:25:23;;;;;;;2.10;1.80;;;17.60;99.90;;;;;;4981145;28;20669;-71
2023/08/01 04:27:50;;;;;;;2.30;2.10;;;17.60;99.90;;;;;;4976971;28;20621;-72
2023/08/01 04:30:18;;;;;;;2.30;2.10;;;17.60;99.90;;;;;;4979941;28;20625;-71
2023/08/01 04:32:45;;;;;;;3.33;2.30;;;17.60;99.90;;;;;;4980268;28;20624;-70
2023/08/01 04:35:12;;;;;;;6.20;2.13;;;17.60;99.90;;;;;;4979598;28;20627;-71
2023/08/01 04:37:39;;;;;;;1.70;1.60;;;17.60;99.90;;;;;;4980264;28;20634;-71
2023/08/01 04:40:07;;;;;;;2.13;1.60;;;17.70;99.90;;;;;;4978082;28;20629;-71
2023/08/01 04:42:34;;;;;;;2.53;2.07;;;17.60;99.90;;;;;;4984687;28;21257;-70
2023/08/01 04:45:01;;;;;;;3.23;1.80;;;17.60;99.90;;;;;;4982144;28;20744;-71
2023/08/01 04:47:29;;;;;;;1.80;1.40;;;17.70;99.90;;;;;;4980100;28;20670;-71
2023/08/01 04:49:55;;;;;;;3.00;2.30;;;17.60;99.90;;;;;;4979377;28;20633;-72
2023/08/01 04:52:22;;;;;;;2.77;1.93;;;17.60;99.90;;;;;;4980937;28;20657;-72
2023/08/01 04:54:49;;;;;;;3.33;2.20;;;17.50;99.90;;;;;;4979447;28;20637;-72
2023/08/01 04:57:16;;;;;;;1.77;1.47;;;17.60;99.90;;;;;;4979460;28;20764;-71
2023/08/01 04:59:43;;;;;;;2.10;1.53;;;17.70;99.90;;;;;;4978422;28;20730;-71
2023/08/01 05:02:09;;;;;;;2.53;1.90;;;17.70;99.90;;;;;;4981913;28;20642;-71
2023/08/01 05:04:38;;;;;;;2.30;2.00;;;17.70;99.90;;;;;;4976410;28;21316;-71
2023/08/01 05:07:06;;;;;;;3.67;1.83;;;17.70;99.90;;;;;;4980610;28;20645;-71
2023/08/01 05:09:33;;;;;;;1.70;1.60;;;17.70;99.90;;;;;;4978505;28;20622;-71
2023/08/01 05:12:00;;;;;;;2.43;1.73;;;17.80;99.90;;;;;;4981091;28;20653;-72
2023/08/01 05:14:27;;;;;;;2.00;1.83;;;17.80;99.90;;;;;;4978321;28;20625;-71
2023/08/01 05:16:53;;;;;;;2.87;2.20;;;17.80;99.90;;;;;;4980042;28;20692;-71
2023/08/01 05:19:20;;;;;;;2.10;1.93;;;17.80;99.90;;;;;;4980112;28;20636;-71
2023/08/01 05:21:48;;;;;;;3.87;2.90;;;17.80;99.90;;;;;;4979357;28;20661;-72
2023/08/01 05:24:15;;;;;;;2.90;2.27;;;17.80;99.90;;;;;;4979515;28;20735;-72
2023/08/01 05:26:42;;;;;;;2.73;2.47;;;17.80;99.90;;;;;;4981187;28;20649;-71
2023/08/01 05:29:09;;;;;;;3.30;2.37;;;17.80;99.90;;;;;;4979232;28;20643;-72
2023/08/01 05:31:36;;;;;;;2.10;1.90;;;17.70;99.90;;;;;;4982062;28;20645;-72
2023/08/01 05:34:02;;;;;;;2.17;1.97;;;17.70;99.90;;;;;;4982266;28;20640;-72
2023/08/01 05:36:29;;;;;;;2.30;2.10;;;17.70;99.90;;;;;;4979172;28;20650;-72
2023/08/01 05:38:58;;;;;;;2.03;1.83;;;17.80;99.90;;;;;;4978455;28;20637;-72
2023/08/01 05:41:24;;;;;;;3.50;3.00;;;17.80;99.90;;;;;;4979705;28;20654;-72
2023/08/01 05:43:51;;;;;;;3.93;1.93;;;17.80;99.90;;;;;;4983804;28;20714;-72
2023/08/01 05:46:18;;;;;;;4.87;2.23;;;17.90;99.90;;;;;;4982462;28;21136;-72
2023/08/01 05:48:45;;;;;;;2.00;1.83;;;17.90;99.90;;;;;;4974674;28;20636;-72
2023/08/01 05:51:12;;;;;;;2.93;2.60;;;18.00;99.90;;;;;;4974715;28;20646;-72
2023/08/01 05:53:38;;;;;;;3.10;2.13;;;18.00;99.90;;;;;;4979140;28;20649;-72
2023/08/01 05:56:07;;;;;;;3.03;2.53;;;18.00;99.90;;;;;;4980137;28;20645;-72
2023/08/01 05:58:33;;;;;;;3.80;2.40;;;17.90;99.90;;;;;;4982607;28;20982;-72
2023/08/01 06:01:00;;;;;;;3.90;2.07;;;18.00;99.90;;;;;;4977770;28;20662;-72
2023/08/01 06:03:27;;;;;;;2.47;1.83;;;18.00;99.90;;;;;;4977759;28;20649;-72
2023/08/01 06:05:54;;;;;;;2.10;2.00;;;18.00;99.90;;;;;;4978402;28;21243;-72
2023/08/01 06:08:21;;;;;;;1.83;1.63;;;18.00;99.90;;;;;;4976718;28;20637;-72
2023/08/01 06:10:48;;;;;;;2.67;2.23;;;18.00;99.90;;;;;;4988110;28;20657;-72
2023/08/01 06:13:16;;;;;;;3.80;2.40;;;18.00;99.90;;;;;;4983002;28;20630;-71
2023/08/01 06:15:43;;;;;;;2.10;1.90;;;18.00;99.90;;;;;;4982624;28;20753;-72
2023/08/01 06:18:10;;;;;;;3.70;2.43;;;18.10;99.90;;;;;;4978413;28;20629;-72
2023/08/01 06:20:37;;;;;;;4.37;1.87;;;18.10;99.90;;;;;;4977368;28;21026;-72
2023/08/01 06:23:04;;;;;;;2.57;2.20;;;18.20;99.90;;;;;;4977598;28;20618;-72
2023/08/01 06:25:31;;;;;;;2.53;1.70;;;18.00;99.90;;;;;;4982275;28;20677;-72
2023/08/01 06:27:58;;;;;;;2.23;2.03;;;18.00;99.90;;;;;;4977532;28;20637;-72
2023/08/01 06:30:26;;;;;;;2.17;1.97;;;17.90;99.90;;;;;;4981914;28;20669;-72
2023/08/01 06:32:53;;;;;;;4.30;2.70;;;17.70;99.90;;;;;;4983116;28;21226;-71
2023/08/01 06:35:20;;;;;;;3.70;2.20;;;17.70;99.90;;;;;;4978575;28;21002;-71
2023/08/01 06:37:47;;;;;;;4.37;2.80;;;17.60;99.90;;;;;;4978351;28;21215;-71
2023/08/01 06:40:14;;;;;;;3.70;2.70;;;17.50;99.90;;;;;;4979669;28;20662;-72
2023/08/01 06:42:42;;;;;;;3.70;2.53;;;17.60;99.90;;;;;;4984813;28;20618;-72
2023/08/01 06:45:10;;;;;;;4.67;2.90;;;17.60;99.90;;;;;;4976626;28;21041;-72
2023/08/01 06:47:38;;;;;;;3.33;2.50;;;17.60;99.90;;;;;;4983976;28;20622;-72
2023/08/01 06:50:06;;;;;;;7.17;3.20;;;17.60;99.90;;;;;;4971421;28;21059;-72
2023/08/01 06:52:32;;;;;;;3.17;2.23;;;17.50;99.90;;;;;;4976723;28;21169;-72
2023/08/01 06:54:59;;;;;;;4.27;3.10;;;17.40;99.90;;;;;;4977495;28;20679;-72
2023/08/01 06:57:26;;;;;;;4.07;2.63;;;17.30;99.90;;;;;;4979923;28;20676;-72
2023/08/01 06:59:53;;;;;;;3.07;2.77;;;17.20;99.90;;;;;;4978388;28;20629;-72
2023/08/01 07:02:19;;;;;;;3.00;2.20;;;17.10;99.90;;;;;;4976444;28;20712;-72
2023/08/01 07:04:48;;;;;;;4.17;2.97;;;17.00;99.90;;;;;;4978160;28;20637;-72
2023/08/01 07:07:14;;;;;;;3.97;2.20;;;17.00;99.90;;;;;;4978091;28;20665;-72
2023/08/01 07:09:41;;;;;;;2.90;2.60;;;17.00;99.90;;;;;;4982289;28;21190;-72
2023/08/01 07:12:09;;;;;;;2.83;2.50;;;17.00;99.90;;;;;;4975405;28;20656;-72
2023/08/01 07:14:35;;;;;;;2.70;2.50;;;17.00;99.90;;;;;;4980594;28;20626;-72
2023/08/01 07:17:02;;;;;;;4.00;2.57;;;17.10;99.90;;;;;;4978646;28;20748;-72
2023/08/01 07:19:29;;;;;;;4.83;2.87;;;17.10;99.90;;;;;;4975989;28;20626;-72
2023/08/01 07:21:57;;;;;;;5.90;2.90;;;17.10;99.90;;;;;;4975717;28;20737;-72
2023/08/01 07:24:24;;;;;;;6.40;2.17;;;17.10;99.90;;;;;;4979119;28;20645;-72
2023/08/01 07:26:51;;;;;;;8.23;2.50;;;17.00;99.90;;;;;;4976509;28;20688;-72
2023/08/01 07:29:17;;;;;;;4.30;2.77;;;17.00;99.90;;;;;;4970902;28;20629;-72
2023/08/01 07:31:45;;;;;;;3.10;2.37;;;17.00;99.90;;;;;;4973494;28;21249;-70
2023/08/01 07:34:12;;;;;;;4.03;2.53;;;16.90;99.90;;;;;;4981337;28;20645;-70
2023/08/01 07:36:39;;;;;;;3.43;2.40;;;16.90;99.90;;;;;;4976922;28;20646;-70
2023/08/01 07:39:07;;;;;;;3.43;2.93;;;16.80;99.90;;;;;;4976480;28;21058;-70
2023/08/01 07:41:34;;;;;;;3.93;2.43;;;16.80;99.90;;;;;;4977024;28;20754;-70
2023/08/01 07:44:03;;;;;;;5.47;2.60;;;16.80;99.90;;;;;;4981034;28;20989;-70
2023/08/01 07:46:30;;;;;;;3.07;2.60;;;16.60;99.90;;;;;;4971005;28;20670;-70
2023/08/01 07:48:56;;;;;;;2.27;1.83;;;16.60;99.90;;;;;;4975359;28;20657;-69
2023/08/01 07:51:23;;;;;;;4.50;2.43;;;16.50;99.90;;;;;;4977631;28;20741;-69
2023/08/01 07:53:52;;;;;;;2.60;2.00;;;16.50;99.90;;;;;;4979889;28;20628;-70
2023/08/01 07:56:20;;;;;;;2.53;2.23;;;16.40;99.90;;;;;;4973363;28;20673;-70
2023/08/01 07:58:47;;;;;;;4.63;2.53;;;16.40;99.90;;;;;;4970820;28;20618;-70
2023/08/01 08:01:14;;;;;;;1.93;1.73;;;16.40;99.90;;;;;;4979414;28;20664;-70
2023/08/01 08:03:41;;;;;;;3.03;2.00;;;16.50;99.90;;;;;;4979682;28;20632;-70
2023/08/01 08:06:08;;;;;;;1.73;1.63;;;16.40;99.90;;;;;;4980651;28;20668;-70
2023/08/01 08:08:36;;;;;;;2.83;1.63;;;16.40;99.90;;;;;;4980890;28;20729;-70
2023/08/01 08:11:03;;;;;;;2.00;1.73;;;16.40;99.90;;;;;;4987693;28;20658;-71
2023/08/01 08:13:31;;;;;;;1.70;1.30;;;16.40;99.90;;;;;;4980314;28;20745;-70
2023/08/01 08:15:58;;;;;;;3.13;1.70;;;16.40;99.90;;;;;;4978376;28;20646;-70
2023/08/01 08:18:26;;;;;;;1.60;1.50;;;16.50;99.90;;;;;;4981874;28;20625;-71
2023/08/01 08:20:53;;;;;;;1.70;1.40;;;16.40;99.90;;;;;;4980007;28;20686;-70
2023/08/01 08:23:20;;;;;;;1.53;1.40;;;16.40;99.90;;;;;;4979916;28;20626;-71
2023/08/01 08:25:47;;;;;;;1.93;1.60;;;16.50;99.90;;;;;;4975311;28;20666;-70
2023/08/01 08:28:14;;;;;;;2.20;2.00;;;16.50;99.90;;;;;;4987383;28;20621;-70
2023/08/01 08:30:42;;;;;;;2.80;1.60;;;16.60;99.90;;;;;;4983434;28;20641;-71
2023/08/01 08:33:10;;;;;;;2.67;2.00;;;16.60;99.90;;;;;;4980325;28;21253;-71
2023/08/01 08:35:37;;;;;;;1.50;1.40;;;16.60;99.90;;;;;;4976284;28;20719;-70
2023/08/01 08:38:04;;;;;;;2.03;1.83;;;16.60;99.90;;;;;;4983317;28;20715;-70
2023/08/01 08:40:33;;;;;;;2.00;1.90;;;16.70;99.90;;;;;;4978671;28;20660;-70
2023/08/01 08:43:03;;;;;;;2.17;1.97;;;16.90;99.90;;;;;;4980294;28;21097;-71
2023/08/01 08:45:34;;;;;;;2.77;2.20;;;16.90;99.90;;;;;;4987122;28;20763;-70
2023/08/01 08:48:09;;;;;;;2.80;2.27;;;17.00;99.90;;;;;;4973607;28;20629;-70
2023/08/01 08:50:46;;;;;;;2.60;1.80;;;17.20;99.90;;;;;;4980003;28;21294;-70
2023/08/01 08:53:19;;;;;;;2.77;2.27;;;17.30;99.90;;;;;;4978983;28;21045;-70
2023/08/01 08:55:46;;;;;;;2.03;1.63;;;17.40;99.90;;;;;;4977168;28;20656;-70
2023/08/01 08:58:17;;;;;;;2.30;1.70;;;17.50;99.90;;;;;;4979045;28;21278;-70
2023/08/01 09:00:44;;;;;;;3.17;2.00;;;17.50;99.90;;;;;;4980752;28;20771;-70
2023/08/01 09:03:13;;;;;;;2.80;2.00;;;17.60;99.90;;;;;;4984684;28;20729;-69
2023/08/01 09:05:46;;;;;;;2.20;1.40;;;17.70;99.90;;;;;;4981953;28;21324;-69
2023/08/01 09:08:18;;;;;;;1.80;1.70;;;17.50;99.90;;;;;;4978805;28;20637;-70
2023/08/01 09:10:45;;;;;;;1.30;1.20;;;17.60;99.90;;;;;;4979005;28;20656;-70
2023/08/01 09:13:12;;;;;;;2.37;1.47;;;17.60;99.90;;;;;;4977942;28;20633;-71
2023/08/01 09:15:41;;;;;;;2.33;1.83;;;17.60;99.90;;;;;;4981278;28;21313;-69
2023/08/01 09:18:08;;;;;;;1.43;1.33;;;17.60;99.90;;;;;;4979301;28;20723;-69
2023/08/01 09:20:43;;;;;;;1.80;1.43;;;17.60;99.90;;;;;;4981020;28;20663;-71
2023/08/01 09:23:11;;;;;;;1.43;1.20;;;17.60;99.90;;;;;;4977755;28;21252;-71
2023/08/01 09:25:38;;;;;;;2.83;1.93;;;17.50;99.90;;;;;;4980740;28;20649;-69
2023/08/01 09:28:16;;;;;;;1.23;1.13;;;17.50;99.90;;;;;;4981538;28;20645;-69
2023/08/01 09:30:47;;;;;;;1.20;1.10;;;17.50;99.90;;;;;;4979222;28;20676;-70
2023/08/01 09:33:14;;;;;;;1.20;1.07;;;17.70;99.90;;;;;;4979253;28;20991;-70
2023/08/01 09:35:44;;;;;;;1.80;1.20;;;17.60;99.90;;;;;;4974799;28;21302;-70
2023/08/01 09:38:11;;;;;;;1.17;1.07;;;17.70;99.90;;;;;;4974108;28;20661;-70
2023/08/01 09:40:38;;;;;;;2.87;1.50;;;17.70;99.90;;;;;;4981424;28;20649;-70
2023/08/01 09:43:05;;;;;;;1.03;0.90;;;17.80;99.90;;;;;;4984892;28;20635;-70
2023/08/01 09:45:32;;;;;;;1.67;1.57;;;17.80;99.90;;;;;;4975224;28;20651;-70
2023/08/01 09:47:58;;;;;;;1.80;1.20;;;17.90;99.90;;;;;;4981036;28;20654;-69
2023/08/01 09:50:25;;;;;;;1.50;1.33;;;17.90;99.90;;;;;;4977015;28;20750;-70
2023/08/01 09:52:53;;;;;;;0.80;0.80;;;17.80;99.90;;;;;;4974875;28;20629;-69
2023/08/01 09:55:23;;;;;;;1.03;0.60;;;17.80;99.90;;;;;;4978511;28;20630;-70
2023/08/01 09:57:53;;;;;;;0.87;0.67;;;18.00;99.90;;;;;;4978038;28;20763;-69
2023/08/01 10:00:20;;;;;;;0.70;0.70;;;18.00;99.90;;;;;;4976745;28;20984;-70
2023/08/01 10:02:47;;;;;;;0.80;0.80;;;18.10;99.90;;;;;;4978017;28;21070;-70
2023/08/01 10:05:14;;;;;;;0.77;0.77;;;18.00;99.90;;;;;;4980584;28;20638;-70
2023/08/01 10:07:42;;;;;;;0.60;0.50;;;18.30;99.90;;;;;;4975094;28;20765;-70
2023/08/01 10:10:11;;;;;;;0.83;0.50;;;18.40;99.90;;;;;;4987478;28;20982;-70
2023/08/01 10:12:40;;;;;;;0.60;0.53;;;18.40;99.90;;;;;;4981073;28;20641;-70
2023/08/01 10:15:08;;;;;;;0.93;0.50;;;18.50;99.90;;;;;;4974805;28;20638;-70
2023/08/01 10:17:36;;;;;;;0.60;0.47;;;18.40;99.90;;;;;;4977961;28;20660;-70
2023/08/01 10:20:03;;;;;;;0.40;0.40;;;18.30;99.90;;;;;;4977392;28;20734;-71
2023/08/01 10:22:30;;;;;;;0.30;0.30;;;18.40;99.90;;;;;;4979958;28;20968;-71
2023/08/01 10:24:58;;;;;;;0.60;0.50;;;18.50;99.90;;;;;;4980160;28;20665;-70
2023/08/01 10:27:26;;;;;;;0.40;0.30;;;18.50;99.90;;;;;;4974143;28;20674;-71
2023/08/01 10:29:58;;;;;;;0.60;0.60;;;18.40;99.90;;;;;;4977711;28;20733;-70
2023/08/01 10:32:31;;;;;;;0.70;0.70;;;18.40;99.90;;;;;;4975581;28;20756;-70
2023/08/01 10:34:58;;;;;;;2.10;0.70;;;18.40;99.90;;;;;;4980843;28;20621;-71
2023/08/01 10:37:24;;;;;;;0.50;0.50;;;18.50;99.90;;;;;;4977253;28;20677;-71
2023/08/01 10:40:01;;;;;;;0.73;0.43;;;18.60;99.90;;;;;;4975550;28;20638;-71
2023/08/01 10:42:40;;;;;;;0.50;0.50;;;18.80;99.90;;;;;;4973771;28;21042;-70
2023/08/01 10:45:21;;;;;;;0.50;0.50;;;18.90;99.90;;;;;;4988826;28;20648;-71
2023/08/01 10:47:48;;;;;;;0.80;0.40;;;19.10;99.90;;;;;;4977314;28;20658;-70
2023/08/01 10:50:16;;;;;;;1.27;0.60;;;19.60;99.90;;;;;;4978430;28;20637;-69
2023/08/01 10:52:46;;;;;;;1.00;0.40;;;19.80;99.90;;;;;;4972819;28;20638;-70
2023/08/01 10:55:13;;;;;;;0.50;0.50;;;19.90;99.90;;;;;;4977518;28;20638;-70
2023/08/01 10:57:49;;;;;;;0.80;0.60;;;19.80;99.90;;;;;;4979546;28;20635;-70
2023/08/01 11:00:19;;;;;;;0.90;0.50;;;19.60;99.90;;;;;;4979025;28;20617;-70
2023/08/01 11:02:51;;;;;;;0.63;0.60;;;19.50;99.90;;;;;;4980475;28;20799;-70
2023/08/01 11:05:19;;;;;;;1.30;1.20;;;19.30;99.90;;;;;;4973689;28;20626;-69
2023/08/01 11:07:55;;;;;;;1.00;0.80;;;19.60;99.90;;;;;;4982478;28;20703;-70
2023/08/01 11:10:22;;;;;;;0.60;0.60;;;20.00;99.90;;;;;;4986775;28;20636;-70
2023/08/01 11:12:50;;;;;;;1.27;0.77;;;20.50;99.90;;;;;;4977520;28;20635;-70
2023/08/01 11:15:17;;;;;;;0.70;0.70;;;20.60;99.90;;;;;;4975741;28;20632;-71
2023/08/01 11:17:49;;;;;;;0.50;0.50;;;20.80;99.90;;;;;;4975943;28;20640;-70
2023/08/01 11:20:16;;;;;;;0.60;0.50;;;20.90;99.90;;;;;;4976575;28;20626;-70
2023/08/01 11:22:54;;;;;;;0.40;0.40;;;21.00;99.90;;;;;;4977163;28;20640;-71
2023/08/01 11:25:33;;;;;;;0.87;0.70;;;20.90;99.90;;;;;;4971342;28;21176;-71
2023/08/01 11:28:05;;;;;;;1.33;0.70;;;21.20;98.30;;;;;;4978010;28;20662;-71
2023/08/01 11:30:33;;;;;;;0.70;0.70;;;21.70;98.60;;;;;;4978277;28;20660;-71
2023/08/01 11:33:00;;;;;;;0.53;0.53;;;21.90;97.50;;;;;;4977511;28;21196;-71
2023/08/01 11:35:27;;;;;;;0.90;0.67;;;22.30;96.80;;;;;;4978865;28;20643;-72
2023/08/01 11:37:54;;;;;;;1.13;0.60;;;22.40;94.70;;;;;;4978327;28;20624;-71
2023/08/01 11:40:21;;;;;;;2.17;0.60;;;22.60;95.00;;;;;;4982905;28;20637;-71
2023/08/01 11:42:50;;;;;;;0.80;0.80;;;23.10;94.70;;;;;;4978432;28;20731;-71
2023/08/01 11:45:19;;;;;;;0.83;0.60;;;23.40;95.00;;;;;;4984640;28;21038;-71
2023/08/01 11:47:47;;;;;;;1.10;0.87;;;23.40;93.50;;;;;;4983458;28;20658;-71
2023/08/01 11:50:14;;;;;;;0.50;0.50;;;23.80;93.20;;;;;;4982201;28;20627;-71
2023/08/01 11:52:41;;;;;;;0.90;0.73;;;24.20;91.10;;;;;;4985475;28;20632;-71
2023/08/01 11:55:08;;;;;;;1.60;0.90;;;24.80;90.50;;;;;;4978608;28;20628;-71
2023/08/01 11:57:35;;;;;;;1.40;0.90;;;25.40;90.80;;;;;;4985073;28;20736;-71
2023/08/01 12:00:02;;;;;;;0.60;0.60;;;25.30;82.20;;;;;;4985629;28;20630;-71
2023/08/01 12:02:31;;;;;;;0.57;0.57;;;25.10;84.00;;;;;;4983168;28;20664;-72
2023/08/01 12:04:57;;;;;;;1.07;1.00;;;25.50;86.20;;;;;;4983303;28;21193;-71
2023/08/01 12:07:27;;;;;;;0.97;0.87;;;26.30;86.00;;;;;;4974662;28;21027;-71
2023/08/01 12:09:58;;;;;;;0.73;0.70;;;26.60;82.60;;;;;;4982733;28;20634;-71
2023/08/01 12:12:27;;;;;;;0.93;0.47;;;26.40;76.70;;;;;;4983038;28;20749;-71
2023/08/01 12:14:54;;;;;;;0.60;0.60;;;27.10;77.70;;;;;;4989228;28;20732;-71
2023/08/01 12:17:21;;;;;;;1.13;0.73;;;28.00;78.70;;;;;;4987335;28;20646;-71
2023/08/01 12:19:49;;;;;;;0.73;0.50;;;28.30;69.80;;;;;;4982886;28;20625;-71
2023/08/01 12:22:16;;;;;;;0.47;0.47;;;28.10;69.70;;;;;;4983095;28;21218;-71
2023/08/01 12:24:43;;;;;;;1.23;1.07;;;27.90;69.60;;;;;;4983237;28;20622;-71
2023/08/01 12:27:10;;;;;;;0.87;0.87;;;26.70;70.30;;;;;;4983018;28;20661;-71
2023/08/01 12:29:37;;;;;;;0.80;0.80;;;26.20;74.30;;;;;;4982140;28;20627;-71
2023/08/01 12:32:04;;;;;;;0.77;0.60;;;27.10;72.80;;;;;;4982876;28;20653;-71
2023/08/01 12:34:31;;;;;;;0.63;0.63;;;27.50;69.00;;;;;;4983073;28;20788;-71
2023/08/01 12:36:59;;;;;;;0.73;0.70;;;26.40;69.90;;;;;;4983325;28;20756;-71
2023/08/01 12:39:26;;;;;;;0.70;0.70;;;26.90;71.60;;;;;;4982188;28;20633;-71
2023/08/01 12:41:53;;;;;;;0.90;0.67;;;27.40;67.90;;;;;;4975218;28;20671;-71
2023/08/01 12:44:21;;;;;;;0.80;0.80;;;28.10;70.00;;;;;;4982915;28;20625;-71
2023/08/01 12:46:47;;;;;;;2.93;0.80;;;29.40;67.90;;;;;;4980368;28;20659;-71
2023/08/01 12:49:14;;;;;;;0.70;0.70;;;29.80;66.00;;;;;;4978226;28;21194;-71
2023/08/01 12:51:41;;;;;;;0.50;0.50;;;29.80;63.20;;;;;;4985613;28;20657;-71